EmailTwitter


Surface observations / United Kingdom / EGLC

Regions: Quebec | Canada | USA | Europe | France | UK | Elsewhere
Station
Display
Info & Location for EGLC | Help decoding METAR

Weather Conditions observed on 2020/10/25 at 10:50 UTC at LONDON CITY AIRP, UK (EGLC)

Sky conditions: variable clouds.

Obstruction(s) to Vision: light rain.

Temperature: 11.0 Celsius.

Dewpoint: 7.0 Celsius.

Relative Humidity: 76%

Windchill Factor: 9.

Winds: South-southwest at 17 km/h or 9 knots.

Mean Sea level Pressure: 99.70 kilopascals.

Horizontal visibility: 6.21 statute miles or 9.94 kilometers.

Coded METAR:

EGLC 251050Z AUTO 20009KT 9999 -RA SCT037/// //////CB 11/07 Q0997=